sensor_id;sensor_type;location;lat;lon;timestamp;P1;durP1;ratioP1;P2;durP2;ratioP2
68947;SDS011;55996;49.546;7.400;2022-12-18T00:01:42;24.60;;;13.60;;
68947;SDS011;55996;49.546;7.400;2022-12-18T00:04:12;24.43;;;14.10;;
68947;SDS011;55996;49.546;7.400;2022-12-18T00:06:43;22.40;;;13.50;;
68947;SDS011;55996;49.546;7.400;2022-12-18T00:09:09;24.63;;;14.23;;
68947;SDS011;55996;49.546;7.400;2022-12-18T00:11:35;24.30;;;13.97;;
68947;SDS011;55996;49.546;7.400;2022-12-18T00:14:00;24.97;;;14.60;;
68947;SDS011;55996;49.546;7.400;2022-12-18T00:16:26;23.47;;;14.17;;
68947;SDS011;55996;49.546;7.400;2022-12-18T00:18:53;27.13;;;14.97;;
68947;SDS011;55996;49.546;7.400;2022-12-18T00:21:21;27.03;;;14.97;;
68947;SDS011;55996;49.546;7.400;2022-12-18T00:23:47;28.13;;;15.47;;
68947;SDS011;55996;49.546;7.400;2022-12-18T00:26:14;27.20;;;14.70;;
68947;SDS011;55996;49.546;7.400;2022-12-18T00:28:43;27.37;;;14.47;;
68947;SDS011;55996;49.546;7.400;2022-12-18T00:31:11;27.00;;;14.20;;
68947;SDS011;55996;49.546;7.400;2022-12-18T00:33:44;24.83;;;14.13;;
68947;SDS011;55996;49.546;7.400;2022-12-18T00:36:11;24.13;;;13.40;;
68947;SDS011;55996;49.546;7.400;2022-12-18T00:38:42;25.50;;;14.07;;
68947;SDS011;55996;49.546;7.400;2022-12-18T00:41:09;26.13;;;13.97;;
68947;SDS011;55996;49.546;7.400;2022-12-18T00:43:36;29.83;;;15.33;;
68947;SDS011;55996;49.546;7.400;2022-12-18T00:46:02;31.63;;;15.47;;
68947;SDS011;55996;49.546;7.400;2022-12-18T00:48:28;29.27;;;16.13;;
68947;SDS011;55996;49.546;7.400;2022-12-18T00:50:54;30.70;;;15.07;;
68947;SDS011;55996;49.546;7.400;2022-12-18T00:53:20;26.83;;;15.10;;
68947;SDS011;55996;49.546;7.400;2022-12-18T00:55:45;32.50;;;15.93;;
68947;SDS011;55996;49.546;7.400;2022-12-18T00:58:12;32.27;;;17.37;;
68947;SDS011;55996;49.546;7.400;2022-12-18T01:00:38;32.33;;;16.80;;
68947;SDS011;55996;49.546;7.400;2022-12-18T01:03:04;29.13;;;15.87;;
68947;SDS011;55996;49.546;7.400;2022-12-18T01:05:30;30.87;;;16.60;;
68947;SDS011;55996;49.546;7.400;2022-12-18T01:07:56;29.87;;;15.97;;
68947;SDS011;55996;49.546;7.400;2022-12-18T01:10:22;30.93;;;15.90;;
68947;SDS011;55996;49.546;7.400;2022-12-18T01:12:48;33.67;;;16.33;;
68947;SDS011;55996;49.546;7.400;2022-12-18T01:15:14;29.73;;;16.40;;
68947;SDS011;55996;49.546;7.400;2022-12-18T01:17:40;31.43;;;15.70;;
68947;SDS011;55996;49.546;7.400;2022-12-18T01:20:06;37.80;;;16.33;;
68947;SDS011;55996;49.546;7.400;2022-12-18T01:22:33;33.60;;;16.17;;
68947;SDS011;55996;49.546;7.400;2022-12-18T01:24:59;29.30;;;16.63;;
68947;SDS011;55996;49.546;7.400;2022-12-18T01:27:25;31.63;;;16.23;;
68947;SDS011;55996;49.546;7.400;2022-12-18T01:29:51;32.40;;;17.60;;
68947;SDS011;55996;49.546;7.400;2022-12-18T01:32:16;32.40;;;16.83;;
68947;SDS011;55996;49.546;7.400;2022-12-18T01:34:42;29.87;;;16.37;;
68947;SDS011;55996;49.546;7.400;2022-12-18T01:37:07;33.20;;;17.77;;
68947;SDS011;55996;49.546;7.400;2022-12-18T01:39:33;30.63;;;16.57;;
68947;SDS011;55996;49.546;7.400;2022-12-18T01:41:59;34.90;;;18.03;;
68947;SDS011;55996;49.546;7.400;2022-12-18T01:47:18;32.63;;;17.17;;
68947;SDS011;55996;49.546;7.400;2022-12-18T01:49:45;34.33;;;17.53;;
68947;SDS011;55996;49.546;7.400;2022-12-18T01:52:10;31.87;;;16.37;;
68947;SDS011;55996;49.546;7.400;2022-12-18T01:54:35;34.23;;;17.47;;
68947;SDS011;55996;49.546;7.400;2022-12-18T01:57:01;30.60;;;16.33;;
68947;SDS011;55996;49.546;7.400;2022-12-18T01:59:26;34.30;;;17.43;;
68947;SDS011;55996;49.546;7.400;2022-12-18T02:01:54;34.20;;;17.23;;
68947;SDS011;55996;49.546;7.400;2022-12-18T02:04:21;32.90;;;17.30;;
68947;SDS011;55996;49.546;7.400;2022-12-18T02:06:50;35.53;;;18.17;;
68947;SDS011;55996;49.546;7.400;2022-12-18T02:09:25;32.37;;;17.60;;
68947;SDS011;55996;49.546;7.400;2022-12-18T02:14:44;35.67;;;17.60;;
68947;SDS011;55996;49.546;7.400;2022-12-18T02:24:57;33.47;;;18.17;;
68947;SDS011;55996;49.546;7.400;2022-12-18T02:27:45;35.13;;;18.00;;
68947;SDS011;55996;49.546;7.400;2022-12-18T02:30:14;35.53;;;18.50;;
68947;SDS011;55996;49.546;7.400;2022-12-18T02:32:42;34.70;;;16.97;;
68947;SDS011;55996;49.546;7.400;2022-12-18T02:35:15;40.20;;;18.97;;
68947;SDS011;55996;49.546;7.400;2022-12-18T02:37:45;35.73;;;17.37;;
68947;SDS011;55996;49.546;7.400;2022-12-18T02:40:12;37.87;;;17.47;;
68947;SDS011;55996;49.546;7.400;2022-12-18T02:42:40;36.27;;;18.43;;
68947;SDS011;55996;49.546;7.400;2022-12-18T02:45:06;37.33;;;18.27;;
68947;SDS011;55996;49.546;7.400;2022-12-18T02:47:32;33.93;;;17.07;;
68947;SDS011;55996;49.546;7.400;2022-12-18T02:56:28;36.30;;;18.23;;
68947;SDS011;55996;49.546;7.400;2022-12-18T02:59:02;35.93;;;17.43;;
68947;SDS011;55996;49.546;7.400;2022-12-18T03:01:45;35.43;;;17.90;;
68947;SDS011;55996;49.546;7.400;2022-12-18T03:04:38;39.40;;;18.67;;
68947;SDS011;55996;49.546;7.400;2022-12-18T03:07:15;37.20;;;18.50;;
68947;SDS011;55996;49.546;7.400;2022-12-18T03:09:46;33.63;;;17.00;;
68947;SDS011;55996;49.546;7.400;2022-12-18T03:12:20;38.70;;;18.10;;
68947;SDS011;55996;49.546;7.400;2022-12-18T03:14:59;35.50;;;17.87;;
68947;SDS011;55996;49.546;7.400;2022-12-18T03:17:29;34.17;;;17.90;;
68947;SDS011;55996;49.546;7.400;2022-12-18T03:19:58;37.43;;;17.83;;
68947;SDS011;55996;49.546;7.400;2022-12-18T03:22:29;35.47;;;18.23;;
68947;SDS011;55996;49.546;7.400;2022-12-18T03:24:58;35.77;;;17.97;;
68947;SDS011;55996;49.546;7.400;2022-12-18T03:27:28;35.13;;;18.00;;
68947;SDS011;55996;49.546;7.400;2022-12-18T03:30:05;36.43;;;18.53;;
68947;SDS011;55996;49.546;7.400;2022-12-18T03:32:36;32.20;;;16.90;;
68947;SDS011;55996;49.546;7.400;2022-12-18T03:35:07;38.77;;;18.50;;
68947;SDS011;55996;49.546;7.400;2022-12-18T03:37:36;39.00;;;18.73;;
68947;SDS011;55996;49.546;7.400;2022-12-18T03:40:02;34.47;;;17.90;;
68947;SDS011;55996;49.546;7.400;2022-12-18T03:42:37;35.33;;;18.00;;
68947;SDS011;55996;49.546;7.400;2022-12-18T03:48:05;34.70;;;16.80;;
68947;SDS011;55996;49.546;7.400;2022-12-18T03:50:37;31.33;;;17.27;;
68947;SDS011;55996;49.546;7.400;2022-12-18T03:55:40;32.37;;;17.80;;
68947;SDS011;55996;49.546;7.400;2022-12-18T03:58:08;39.37;;;18.90;;
68947;SDS011;55996;49.546;7.400;2022-12-18T04:00:36;31.30;;;17.73;;
68947;SDS011;55996;49.546;7.400;2022-12-18T04:03:02;33.10;;;17.00;;
68947;SDS011;55996;49.546;7.400;2022-12-18T04:05:29;34.13;;;17.00;;
68947;SDS011;55996;49.546;7.400;2022-12-18T04:07:58;35.90;;;17.43;;
68947;SDS011;55996;49.546;7.400;2022-12-18T04:10:24;37.83;;;18.10;;
68947;SDS011;55996;49.546;7.400;2022-12-18T04:12:49;35.40;;;17.67;;
68947;SDS011;55996;49.546;7.400;2022-12-18T04:15:15;38.17;;;17.57;;
68947;SDS011;55996;49.546;7.400;2022-12-18T04:17:43;35.93;;;17.33;;
68947;SDS011;55996;49.546;7.400;2022-12-18T04:20:12;36.53;;;18.37;;
68947;SDS011;55996;49.546;7.400;2022-12-18T04:22:38;37.53;;;18.37;;
68947;SDS011;55996;49.546;7.400;2022-12-18T04:25:04;37.77;;;18.67;;
68947;SDS011;55996;49.546;7.400;2022-12-18T04:27:29;36.27;;;18.53;;
68947;SDS011;55996;49.546;7.400;2022-12-18T04:29:55;35.47;;;17.47;;
68947;SDS011;55996;49.546;7.400;2022-12-18T04:32:20;40.43;;;18.67;;
68947;SDS011;55996;49.546;7.400;2022-12-18T04:34:45;35.53;;;19.37;;
68947;SDS011;55996;49.546;7.400;2022-12-18T04:37:11;36.40;;;17.83;;
68947;SDS011;55996;49.546;7.400;2022-12-18T04:39:36;38.23;;;18.47;;
68947;SDS011;55996;49.546;7.400;2022-12-18T04:42:02;36.40;;;18.47;;
68947;SDS011;55996;49.546;7.400;2022-12-18T04:44:27;36.63;;;18.50;;
68947;SDS011;55996;49.546;7.400;2022-12-18T04:46:53;38.13;;;19.23;;
68947;SDS011;55996;49.546;7.400;2022-12-18T04:49:18;37.80;;;18.17;;
68947;SDS011;55996;49.546;7.400;2022-12-18T04:51:44;35.13;;;17.00;;
68947;SDS011;55996;49.546;7.400;2022-12-18T04:54:09;34.47;;;18.30;;
68947;SDS011;55996;49.546;7.400;2022-12-18T04:56:35;35.47;;;18.53;;
68947;SDS011;55996;49.546;7.400;2022-12-18T04:59:00;37.03;;;17.93;;
68947;SDS011;55996;49.546;7.400;2022-12-18T05:01:26;34.87;;;17.33;;
68947;SDS011;55996;49.546;7.400;2022-12-18T05:03:51;42.70;;;19.20;;
68947;SDS011;55996;49.546;7.400;2022-12-18T05:06:17;36.63;;;18.07;;
68947;SDS011;55996;49.546;7.400;2022-12-18T05:08:42;38.83;;;19.43;;
68947;SDS011;55996;49.546;7.400;2022-12-18T05:11:09;36.53;;;18.30;;
68947;SDS011;55996;49.546;7.400;2022-12-18T05:13:36;35.90;;;18.40;;
68947;SDS011;55996;49.546;7.400;2022-12-18T05:16:03;38.53;;;18.90;;
68947;SDS011;55996;49.546;7.400;2022-12-18T05:18:29;36.37;;;18.47;;
68947;SDS011;55996;49.546;7.400;2022-12-18T05:20:55;34.90;;;18.47;;
68947;SDS011;55996;49.546;7.400;2022-12-18T05:23:21;40.43;;;19.47;;
68947;SDS011;55996;49.546;7.400;2022-12-18T05:28:20;40.20;;;18.87;;
68947;SDS011;55996;49.546;7.400;2022-12-18T05:30:49;37.03;;;17.83;;
68947;SDS011;55996;49.546;7.400;2022-12-18T05:33:17;39.43;;;19.03;;
68947;SDS011;55996;49.546;7.400;2022-12-18T05:35:43;39.50;;;19.67;;
68947;SDS011;55996;49.546;7.400;2022-12-18T05:38:09;37.13;;;19.57;;
68947;SDS011;55996;49.546;7.400;2022-12-18T05:40:34;36.50;;;18.80;;
68947;SDS011;55996;49.546;7.400;2022-12-18T05:43:00;40.73;;;19.03;;
68947;SDS011;55996;49.546;7.400;2022-12-18T05:45:25;37.03;;;19.37;;
68947;SDS011;55996;49.546;7.400;2022-12-18T05:47:51;42.47;;;19.40;;
68947;SDS011;55996;49.546;7.400;2022-12-18T05:50:16;40.37;;;20.60;;
68947;SDS011;55996;49.546;7.400;2022-12-18T05:52:42;40.63;;;19.47;;
68947;SDS011;55996;49.546;7.400;2022-12-18T05:55:07;39.40;;;19.70;;
68947;SDS011;55996;49.546;7.400;2022-12-18T05:57:33;39.00;;;19.07;;
68947;SDS011;55996;49.546;7.400;2022-12-18T05:59:58;38.50;;;19.37;;
68947;SDS011;55996;49.546;7.400;2022-12-18T06:02:23;37.60;;;19.93;;
68947;SDS011;55996;49.546;7.400;2022-12-18T06:04:49;36.93;;;19.83;;
68947;SDS011;55996;49.546;7.400;2022-12-18T06:07:14;37.83;;;19.17;;
68947;SDS011;55996;49.546;7.400;2022-12-18T06:09:40;37.30;;;18.77;;
68947;SDS011;55996;49.546;7.400;2022-12-18T06:12:05;33.67;;;18.13;;
68947;SDS011;55996;49.546;7.400;2022-12-18T06:14:31;38.70;;;18.93;;
68947;SDS011;55996;49.546;7.400;2022-12-18T06:16:56;39.33;;;19.00;;
68947;SDS011;55996;49.546;7.400;2022-12-18T06:19:22;36.83;;;18.93;;
68947;SDS011;55996;49.546;7.400;2022-12-18T06:21:47;41.90;;;20.53;;
68947;SDS011;55996;49.546;7.400;2022-12-18T06:24:14;39.73;;;19.07;;
68947;SDS011;55996;49.546;7.400;2022-12-18T06:26:39;37.80;;;19.70;;
68947;SDS011;55996;49.546;7.400;2022-12-18T06:29:05;36.20;;;17.97;;
68947;SDS011;55996;49.546;7.400;2022-12-18T06:31:31;38.30;;;20.33;;
68947;SDS011;55996;49.546;7.400;2022-12-18T06:33:56;39.33;;;19.87;;
68947;SDS011;55996;49.546;7.400;2022-12-18T06:36:21;34.17;;;18.07;;
68947;SDS011;55996;49.546;7.400;2022-12-18T06:38:47;38.30;;;19.43;;
68947;SDS011;55996;49.546;7.400;2022-12-18T06:41:15;39.63;;;19.37;;
68947;SDS011;55996;49.546;7.400;2022-12-18T06:43:42;39.57;;;19.13;;
68947;SDS011;55996;49.546;7.400;2022-12-18T06:46:08;37.17;;;20.10;;
68947;SDS011;55996;49.546;7.400;2022-12-18T06:48:34;38.73;;;20.17;;
68947;SDS011;55996;49.546;7.400;2022-12-18T06:51:00;36.60;;;19.17;;
68947;SDS011;55996;49.546;7.400;2022-12-18T06:53:26;39.77;;;19.33;;
68947;SDS011;55996;49.546;7.400;2022-12-18T06:55:52;41.27;;;20.13;;
68947;SDS011;55996;49.546;7.400;2022-12-18T06:58:18;35.53;;;19.13;;
68947;SDS011;55996;49.546;7.400;2022-12-18T07:00:43;36.97;;;18.93;;
68947;SDS011;55996;49.546;7.400;2022-12-18T07:03:09;34.90;;;18.40;;
68947;SDS011;55996;49.546;7.400;2022-12-18T07:05:39;38.17;;;18.73;;
68947;SDS011;55996;49.546;7.400;2022-12-18T07:08:05;36.67;;;18.67;;
68947;SDS011;55996;49.546;7.400;2022-12-18T07:10:31;35.63;;;18.60;;
68947;SDS011;55996;49.546;7.400;2022-12-18T07:12:56;42.37;;;21.87;;
68947;SDS011;55996;49.546;7.400;2022-12-18T07:15:22;34.30;;;19.33;;
68947;SDS011;55996;49.546;7.400;2022-12-18T07:17:47;38.93;;;19.83;;
68947;SDS011;55996;49.546;7.400;2022-12-18T07:20:12;36.37;;;20.63;;
68947;SDS011;55996;49.546;7.400;2022-12-18T07:22:38;43.50;;;19.43;;
68947;SDS011;55996;49.546;7.400;2022-12-18T07:25:03;41.43;;;20.67;;
68947;SDS011;55996;49.546;7.400;2022-12-18T07:27:29;37.50;;;19.40;;
68947;SDS011;55996;49.546;7.400;2022-12-18T07:29:55;41.93;;;21.57;;
68947;SDS011;55996;49.546;7.400;2022-12-18T07:32:20;42.60;;;21.23;;
68947;SDS011;55996;49.546;7.400;2022-12-18T07:34:45;38.97;;;20.33;;
68947;SDS011;55996;49.546;7.400;2022-12-18T07:37:11;39.93;;;22.30;;
68947;SDS011;55996;49.546;7.400;2022-12-18T07:39:36;48.53;;;27.00;;
68947;SDS011;55996;49.546;7.400;2022-12-18T07:42:02;43.77;;;23.70;;
68947;SDS011;55996;49.546;7.400;2022-12-18T07:44:46;43.90;;;22.00;;
68947;SDS011;55996;49.546;7.400;2022-12-18T07:47:11;41.37;;;22.43;;
68947;SDS011;55996;49.546;7.400;2022-12-18T07:49:36;41.50;;;20.67;;
68947;SDS011;55996;49.546;7.400;2022-12-18T07:52:02;41.80;;;21.83;;
68947;SDS011;55996;49.546;7.400;2022-12-18T07:54:27;39.07;;;21.57;;
68947;SDS011;55996;49.546;7.400;2022-12-18T07:56:53;36.03;;;20.37;;
68947;SDS011;55996;49.546;7.400;2022-12-18T07:59:19;41.77;;;22.00;;
68947;SDS011;55996;49.546;7.400;2022-12-18T08:01:45;41.63;;;21.87;;
68947;SDS011;55996;49.546;7.400;2022-12-18T08:04:10;44.87;;;21.47;;
68947;SDS011;55996;49.546;7.400;2022-12-18T08:06:36;40.90;;;20.63;;
68947;SDS011;55996;49.546;7.400;2022-12-18T08:09:01;43.70;;;21.97;;
68947;SDS011;55996;49.546;7.400;2022-12-18T08:11:27;43.30;;;21.27;;
68947;SDS011;55996;49.546;7.400;2022-12-18T08:13:53;42.80;;;22.67;;
68947;SDS011;55996;49.546;7.400;2022-12-18T08:16:19;42.33;;;21.73;;
68947;SDS011;55996;49.546;7.400;2022-12-18T08:18:45;42.13;;;21.47;;
68947;SDS011;55996;49.546;7.400;2022-12-18T08:21:12;41.23;;;20.97;;
68947;SDS011;55996;49.546;7.400;2022-12-18T08:23:46;38.87;;;22.07;;
68947;SDS011;55996;49.546;7.400;2022-12-18T08:26:11;42.40;;;21.17;;
68947;SDS011;55996;49.546;7.400;2022-12-18T08:28:37;40.83;;;22.27;;
68947;SDS011;55996;49.546;7.400;2022-12-18T08:31:03;40.53;;;21.43;;
68947;SDS011;55996;49.546;7.400;2022-12-18T08:33:29;40.53;;;22.13;;
68947;SDS011;55996;49.546;7.400;2022-12-18T08:35:54;36.93;;;21.33;;
68947;SDS011;55996;49.546;7.400;2022-12-18T08:38:20;43.00;;;26.67;;
68947;SDS011;55996;49.546;7.400;2022-12-18T08:40:45;41.90;;;21.87;;
68947;SDS011;55996;49.546;7.400;2022-12-18T08:43:11;40.40;;;23.13;;
68947;SDS011;55996;49.546;7.400;2022-12-18T08:45:55;38.27;;;22.93;;
68947;SDS011;55996;49.546;7.400;2022-12-18T08:48:20;40.67;;;21.20;;
68947;SDS011;55996;49.546;7.400;2022-12-18T08:50:56;36.23;;;20.70;;
68947;SDS011;55996;49.546;7.400;2022-12-18T08:53:23;41.80;;;21.73;;
68947;SDS011;55996;49.546;7.400;2022-12-18T08:55:49;36.93;;;21.10;;
68947;SDS011;55996;49.546;7.400;2022-12-18T08:58:14;39.63;;;20.67;;
68947;SDS011;55996;49.546;7.400;2022-12-18T09:00:39;38.70;;;20.93;;
68947;SDS011;55996;49.546;7.400;2022-12-18T09:03:05;39.97;;;22.67;;
68947;SDS011;55996;49.546;7.400;2022-12-18T09:05:35;39.83;;;21.17;;
68947;SDS011;55996;49.546;7.400;2022-12-18T09:08:00;40.50;;;23.60;;
68947;SDS011;55996;49.546;7.400;2022-12-18T09:10:26;39.67;;;21.43;;
68947;SDS011;55996;49.546;7.400;2022-12-18T09:12:52;40.13;;;23.50;;
68947;SDS011;55996;49.546;7.400;2022-12-18T09:15:17;35.90;;;20.13;;
68947;SDS011;55996;49.546;7.400;2022-12-18T09:17:42;40.90;;;22.23;;
68947;SDS011;55996;49.546;7.400;2022-12-18T09:20:08;39.03;;;21.73;;
68947;SDS011;55996;49.546;7.400;2022-12-18T09:22:34;37.83;;;22.27;;
68947;SDS011;55996;49.546;7.400;2022-12-18T09:25:00;37.73;;;20.33;;
68947;SDS011;55996;49.546;7.400;2022-12-18T09:27:25;40.33;;;22.10;;
68947;SDS011;55996;49.546;7.400;2022-12-18T09:29:50;39.13;;;21.03;;
68947;SDS011;55996;49.546;7.400;2022-12-18T09:32:16;38.83;;;21.37;;
68947;SDS011;55996;49.546;7.400;2022-12-18T09:34:41;37.73;;;21.20;;
68947;SDS011;55996;49.546;7.400;2022-12-18T09:37:07;38.13;;;21.03;;
68947;SDS011;55996;49.546;7.400;2022-12-18T09:39:32;39.47;;;20.97;;
68947;SDS011;55996;49.546;7.400;2022-12-18T09:42:00;37.33;;;21.83;;
68947;SDS011;55996;49.546;7.400;2022-12-18T09:47:25;40.80;;;22.47;;
68947;SDS011;55996;49.546;7.400;2022-12-18T09:50:02;39.40;;;22.47;;
68947;SDS011;55996;49.546;7.400;2022-12-18T09:52:35;37.33;;;20.87;;
68947;SDS011;55996;49.546;7.400;2022-12-18T09:55:09;41.40;;;21.67;;
68947;SDS011;55996;49.546;7.400;2022-12-18T09:57:51;38.50;;;21.37;;
68947;SDS011;55996;49.546;7.400;2022-12-18T10:00:24;41.50;;;23.00;;
68947;SDS011;55996;49.546;7.400;2022-12-18T10:02:51;39.63;;;21.80;;
68947;SDS011;55996;49.546;7.400;2022-12-18T10:11:53;41.63;;;23.17;;
68947;SDS011;55996;49.546;7.400;2022-12-18T10:19:21;38.47;;;21.83;;
68947;SDS011;55996;49.546;7.400;2022-12-18T10:24:53;35.87;;;21.93;;
68947;SDS011;55996;49.546;7.400;2022-12-18T10:27:26;38.23;;;21.93;;
68947;SDS011;55996;49.546;7.400;2022-12-18T10:29:53;38.13;;;22.73;;
68947;SDS011;55996;49.546;7.400;2022-12-18T10:32:20;34.47;;;21.13;;
68947;SDS011;55996;49.546;7.400;2022-12-18T10:34:53;36.97;;;21.87;;
68947;SDS011;55996;49.546;7.400;2022-12-18T10:37:21;36.27;;;22.17;;
68947;SDS011;55996;49.546;7.400;2022-12-18T10:40:12;41.10;;;21.90;;
68947;SDS011;55996;49.546;7.400;2022-12-18T10:42:41;37.40;;;22.03;;
68947;SDS011;55996;49.546;7.400;2022-12-18T10:45:13;37.13;;;20.93;;
68947;SDS011;55996;49.546;7.400;2022-12-18T10:47:44;38.30;;;22.10;;
68947;SDS011;55996;49.546;7.400;2022-12-18T10:52:54;40.27;;;21.23;;
68947;SDS011;55996;49.546;7.400;2022-12-18T10:55:26;38.40;;;22.53;;
68947;SDS011;55996;49.546;7.400;2022-12-18T10:57:56;36.80;;;22.17;;
68947;SDS011;55996;49.546;7.400;2022-12-18T11:00:41;41.13;;;23.13;;
68947;SDS011;55996;49.546;7.400;2022-12-18T11:03:17;39.67;;;23.63;;
68947;SDS011;55996;49.546;7.400;2022-12-18T11:06:02;41.93;;;21.83;;
68947;SDS011;55996;49.546;7.400;2022-12-18T11:08:34;39.90;;;22.97;;
68947;SDS011;55996;49.546;7.400;2022-12-18T11:11:00;42.27;;;23.17;;
68947;SDS011;55996;49.546;7.400;2022-12-18T11:13:27;42.23;;;23.30;;
68947;SDS011;55996;49.546;7.400;2022-12-18T11:15:54;40.27;;;22.80;;
68947;SDS011;55996;49.546;7.400;2022-12-18T11:18:30;40.27;;;23.10;;
68947;SDS011;55996;49.546;7.400;2022-12-18T11:21:06;40.80;;;22.63;;
68947;SDS011;55996;49.546;7.400;2022-12-18T11:23:33;38.90;;;23.57;;
68947;SDS011;55996;49.546;7.400;2022-12-18T11:26:01;42.37;;;23.50;;
68947;SDS011;55996;49.546;7.400;2022-12-18T11:28:34;40.33;;;23.90;;
68947;SDS011;55996;49.546;7.400;2022-12-18T11:36:51;40.03;;;23.67;;
68947;SDS011;55996;49.546;7.400;2022-12-18T11:39:18;49.43;;;27.90;;
68947;SDS011;55996;49.546;7.400;2022-12-18T11:41:56;57.30;;;31.03;;
68947;SDS011;55996;49.546;7.400;2022-12-18T11:44:57;55.20;;;30.17;;
68947;SDS011;55996;49.546;7.400;2022-12-18T11:53:02;77.50;;;39.17;;
68947;SDS011;55996;49.546;7.400;2022-12-18T12:06:45;46.07;;;25.50;;
68947;SDS011;55996;49.546;7.400;2022-12-18T12:22:59;45.97;;;24.87;;
68947;SDS011;55996;49.546;7.400;2022-12-18T12:25:35;43.47;;;25.27;;
68947;SDS011;55996;49.546;7.400;2022-12-18T12:36:08;43.73;;;24.73;;
68947;SDS011;55996;49.546;7.400;2022-12-18T12:39:06;47.53;;;26.63;;
68947;SDS011;55996;49.546;7.400;2022-12-18T12:41:37;44.63;;;25.73;;
68947;SDS011;55996;49.546;7.400;2022-12-18T12:44:30;70.90;;;40.20;;
68947;SDS011;55996;49.546;7.400;2022-12-18T12:47:07;70.47;;;39.27;;
68947;SDS011;55996;49.546;7.400;2022-12-18T12:49:55;45.70;;;24.70;;
68947;SDS011;55996;49.546;7.400;2022-12-18T12:55:00;49.70;;;28.77;;
68947;SDS011;55996;49.546;7.400;2022-12-18T12:57:39;45.57;;;25.77;;
68947;SDS011;55996;49.546;7.400;2022-12-18T13:07:59;43.47;;;25.80;;
68947;SDS011;55996;49.546;7.400;2022-12-18T13:15:31;46.37;;;25.20;;
68947;SDS011;55996;49.546;7.400;2022-12-18T13:18:22;46.80;;;30.43;;
68947;SDS011;55996;49.546;7.400;2022-12-18T13:21:35;44.00;;;26.07;;
68947;SDS011;55996;49.546;7.400;2022-12-18T13:23:55;42.57;;;25.30;;
68947;SDS011;55996;49.546;7.400;2022-12-18T13:26:33;54.20;;;34.50;;
68947;SDS011;55996;49.546;7.400;2022-12-18T13:28:59;45.80;;;27.13;;
68947;SDS011;55996;49.546;7.400;2022-12-18T13:36:47;55.23;;;31.73;;
68947;SDS011;55996;49.546;7.400;2022-12-18T13:41:39;65.30;;;37.27;;
68947;SDS011;55996;49.546;7.400;2022-12-18T13:46:46;44.27;;;26.17;;
68947;SDS011;55996;49.546;7.400;2022-12-18T13:51:49;49.03;;;28.13;;
68947;SDS011;55996;49.546;7.400;2022-12-18T13:57:01;46.87;;;27.57;;
68947;SDS011;55996;49.546;7.400;2022-12-18T13:59:35;46.10;;;27.00;;
68947;SDS011;55996;49.546;7.400;2022-12-18T14:04:59;46.13;;;27.90;;
68947;SDS011;55996;49.546;7.400;2022-12-18T14:07:26;47.13;;;26.73;;
68947;SDS011;55996;49.546;7.400;2022-12-18T14:09:57;45.87;;;26.17;;
68947;SDS011;55996;49.546;7.400;2022-12-18T14:17:52;49.43;;;27.70;;
68947;SDS011;55996;49.546;7.400;2022-12-18T14:20:31;46.83;;;26.53;;
68947;SDS011;55996;49.546;7.400;2022-12-18T14:22:57;48.27;;;26.73;;
68947;SDS011;55996;49.546;7.400;2022-12-18T14:25:28;51.13;;;29.97;;
68947;SDS011;55996;49.546;7.400;2022-12-18T14:28:04;47.63;;;27.63;;
68947;SDS011;55996;49.546;7.400;2022-12-18T14:33:12;45.47;;;26.93;;
68947;SDS011;55996;49.546;7.400;2022-12-18T14:38:27;46.80;;;26.37;;
68947;SDS011;55996;49.546;7.400;2022-12-18T14:41:03;44.67;;;26.93;;
68947;SDS011;55996;49.546;7.400;2022-12-18T14:43:36;45.30;;;26.77;;
68947;SDS011;55996;49.546;7.400;2022-12-18T14:46:04;45.57;;;27.30;;
68947;SDS011;55996;49.546;7.400;2022-12-18T14:48:33;45.63;;;26.93;;
68947;SDS011;55996;49.546;7.400;2022-12-18T14:51:01;45.17;;;28.33;;
68947;SDS011;55996;49.546;7.400;2022-12-18T14:53:32;45.97;;;26.67;;
68947;SDS011;55996;49.546;7.400;2022-12-18T14:55:58;45.10;;;25.83;;
68947;SDS011;55996;49.546;7.400;2022-12-18T14:58:24;42.03;;;26.37;;
68947;SDS011;55996;49.546;7.400;2022-12-18T15:00:49;51.80;;;30.43;;
68947;SDS011;55996;49.546;7.400;2022-12-18T15:03:17;44.30;;;27.07;;
68947;SDS011;55996;49.546;7.400;2022-12-18T15:05:44;45.83;;;27.90;;
68947;SDS011;55996;49.546;7.400;2022-12-18T15:10:56;44.13;;;26.40;;
68947;SDS011;55996;49.546;7.400;2022-12-18T15:13:22;46.03;;;26.97;;
68947;SDS011;55996;49.546;7.400;2022-12-18T15:15:49;47.33;;;26.90;;
68947;SDS011;55996;49.546;7.400;2022-12-18T15:18:20;44.87;;;26.77;;
68947;SDS011;55996;49.546;7.400;2022-12-18T15:20:53;44.33;;;26.70;;
68947;SDS011;55996;49.546;7.400;2022-12-18T15:26:15;46.53;;;29.70;;
68947;SDS011;55996;49.546;7.400;2022-12-18T15:28:48;48.20;;;27.27;;
68947;SDS011;55996;49.546;7.400;2022-12-18T15:33:42;50.13;;;27.70;;
68947;SDS011;55996;49.546;7.400;2022-12-18T15:36:18;44.17;;;25.73;;
68947;SDS011;55996;49.546;7.400;2022-12-18T15:38:52;43.23;;;25.80;;
68947;SDS011;55996;49.546;7.400;2022-12-18T15:41:20;48.13;;;28.20;;
68947;SDS011;55996;49.546;7.400;2022-12-18T15:43:48;43.93;;;25.97;;
68947;SDS011;55996;49.546;7.400;2022-12-18T15:46:16;45.23;;;26.93;;
68947;SDS011;55996;49.546;7.400;2022-12-18T15:48:42;44.83;;;26.70;;
68947;SDS011;55996;49.546;7.400;2022-12-18T15:54:03;42.63;;;25.67;;
68947;SDS011;55996;49.546;7.400;2022-12-18T15:56:31;42.20;;;26.20;;
68947;SDS011;55996;49.546;7.400;2022-12-18T15:59:16;45.73;;;28.43;;
68947;SDS011;55996;49.546;7.400;2022-12-18T16:01:44;44.60;;;27.27;;
68947;SDS011;55996;49.546;7.400;2022-12-18T16:04:13;42.70;;;26.00;;
68947;SDS011;55996;49.546;7.400;2022-12-18T16:06:40;45.23;;;27.37;;
68947;SDS011;55996;49.546;7.400;2022-12-18T16:09:06;43.93;;;26.00;;
68947;SDS011;55996;49.546;7.400;2022-12-18T16:11:33;44.07;;;25.83;;
68947;SDS011;55996;49.546;7.400;2022-12-18T16:14:11;47.60;;;27.03;;
68947;SDS011;55996;49.546;7.400;2022-12-18T16:16:42;45.67;;;26.13;;
68947;SDS011;55996;49.546;7.400;2022-12-18T16:19:07;46.13;;;27.33;;
68947;SDS011;55996;49.546;7.400;2022-12-18T16:21:33;42.57;;;25.43;;
68947;SDS011;55996;49.546;7.400;2022-12-18T16:23:58;40.40;;;25.57;;
68947;SDS011;55996;49.546;7.400;2022-12-18T16:26:24;44.27;;;25.83;;
68947;SDS011;55996;49.546;7.400;2022-12-18T16:28:51;46.47;;;27.30;;
68947;SDS011;55996;49.546;7.400;2022-12-18T16:31:16;45.73;;;26.73;;
68947;SDS011;55996;49.546;7.400;2022-12-18T16:33:42;41.70;;;25.67;;
68947;SDS011;55996;49.546;7.400;2022-12-18T16:36:07;48.00;;;28.33;;
68947;SDS011;55996;49.546;7.400;2022-12-18T16:38:33;44.50;;;26.47;;
68947;SDS011;55996;49.546;7.400;2022-12-18T16:40:58;44.73;;;26.33;;
68947;SDS011;55996;49.546;7.400;2022-12-18T16:43:42;53.20;;;29.37;;
68947;SDS011;55996;49.546;7.400;2022-12-18T16:46:08;51.60;;;30.97;;
68947;SDS011;55996;49.546;7.400;2022-12-18T16:48:33;49.57;;;29.57;;
68947;SDS011;55996;49.546;7.400;2022-12-18T16:50:59;46.53;;;28.00;;
68947;SDS011;55996;49.546;7.400;2022-12-18T16:53:26;44.33;;;27.33;;
68947;SDS011;55996;49.546;7.400;2022-12-18T16:55:55;46.73;;;27.13;;
68947;SDS011;55996;49.546;7.400;2022-12-18T16:58:21;46.37;;;26.70;;